Time;durP1;ratioP1;P1;durP2;ratioP2;P2;SDS_P1;SDS_P2;PMS_P1;PMS_P2;Temp;Humidity;BMP_temperature;BMP_pressure;BME280_temperature;BME280_humidity;BME280_pressure;Samples;Min_cycle;Max_cycle;Signal;HPM_P1;HPM_P2
2022/09/20 00:01:31;;;;;;;2.35;0.73;;;;;;;24.98;36.23;102196.78;5094369;28;20035;-48
2022/09/20 00:04:01;;;;;;;2.20;1.08;;;;;;;24.99;35.89;102199.41;5094772;28;20047;-48
2022/09/20 00:06:31;;;;;;;2.30;0.98;;;;;;;24.95;35.98;102197.59;5094829;28;20081;-46
2022/09/20 00:09:01;;;;;;;2.55;0.77;;;;;;;24.99;36.01;102193.28;5094779;28;20028;-47
2022/09/20 00:11:31;;;;;;;2.75;0.88;;;;;;;24.92;36.23;102192.25;5094104;28;20456;-49
2022/09/20 00:14:01;;;;;;;1.45;0.77;;;;;;;24.95;35.88;102197.59;5094757;28;20459;-46
2022/09/20 00:16:32;;;;;;;2.30;0.93;;;;;;;24.96;35.90;102188.88;5076657;28;20483;-50
2022/09/20 00:19:02;;;;;;;3.03;1.10;;;;;;;24.98;36.24;102187.19;5094562;28;20105;-46
2022/09/20 00:21:32;;;;;;;1.90;0.70;;;;;;;24.96;36.03;102193.22;5094457;28;20055;-46
2022/09/20 00:24:01;;;;;;;1.25;0.70;;;;;;;24.93;36.15;102188.78;5094251;28;20107;-50
2022/09/20 00:26:30;;;;;;;3.58;0.70;;;;;;;24.92;36.10;102180.84;5094345;28;20041;-47
2022/09/20 00:28:59;;;;;;;0.75;0.52;;;;;;;24.92;36.05;102187.00;5094150;28;20081;-48
2022/09/20 00:31:28;;;;;;;2.92;0.80;;;;;;;24.93;35.78;102183.53;5094249;28;20028;-50
2022/09/20 00:36:45;;;;;;;1.98;0.82;;;;;;;24.94;36.03;102182.69;5090546;28;20047;-46
2022/09/20 00:39:15;;;;;;;1.80;0.68;;;;;;;24.93;36.35;102182.63;5093914;28;20027;-47
2022/09/20 00:41:44;;;;;;;3.08;1.10;;;;;;;24.96;36.12;102186.25;5094160;28;20047;-48
2022/09/20 00:44:50;;;;;;;2.00;0.80;;;;;;;24.94;36.35;102184.41;5094241;28;20113;-48
2022/09/20 00:47:22;;;;;;;1.58;0.82;;;;;;;24.96;35.91;102187.97;5086036;28;20032;-49
2022/09/20 00:49:53;;;;;;;1.85;0.75;;;;;;;24.91;36.15;102179.97;5093977;28;20028;-49
2022/09/20 00:52:22;;;;;;;1.60;0.68;;;;;;;24.89;35.98;102181.66;5075880;28;20502;-49
2022/09/20 00:54:51;;;;;;;2.60;0.80;;;;;;;24.86;36.13;102187.72;5094104;28;20026;-47
2022/09/20 00:57:19;;;;;;;0.60;0.60;;;;;;;24.81;36.22;102176.19;5093804;28;20028;-49
2022/09/20 00:59:49;;;;;;;2.17;1.00;;;;;;;24.85;36.39;102177.16;5093776;28;20464;-50
2022/09/20 01:02:24;;;;;;;4.13;0.88;;;;;;;24.87;36.31;102175.47;5093825;28;20046;-50
2022/09/20 01:04:51;;;;;;;;;;;;;;;24.90;36.40;102174.69;5094227;28;20020;-50
2022/09/20 01:07:22;;;;;;;2.25;1.00;;;;;;;24.92;35.93;102180.84;5092741;28;19950;-45
2022/09/20 01:09:51;;;;;;;2.90;0.80;;;;;;;24.88;36.59;102174.63;5075409;28;20386;-48
2022/09/20 01:12:24;;;;;;;2.13;1.02;;;;;;;24.84;36.44;102175.38;5092793;28;20020;-47
2022/09/20 01:14:53;;;;;;;2.45;0.85;;;;;;;24.84;36.61;102175.38;5076119;28;20024;-47
2022/09/20 01:17:24;;;;;;;1.05;0.50;;;;;;;24.85;36.41;102169.28;5075537;28;20067;-49
2022/09/20 01:20:13;;;;;;;0.95;0.52;;;;;;;24.86;36.38;102169.34;5093217;28;20024;-49
2022/09/20 01:23:03;;;;;;;1.42;0.68;;;;;;;24.81;36.55;102170.06;5074417;28;20459;-48
2022/09/20 01:26:10;;;;;;;1.95;0.52;;;;;;;24.80;36.33;102182.28;5085579;28;20047;-49
2022/09/20 01:28:41;;;;;;;2.58;0.80;;;;;;;24.81;36.39;102172.69;5084454;28;20101;-49
2022/09/20 01:31:17;;;;;;;1.02;0.75;;;;;;;24.81;36.13;102183.19;5075635;28;20029;-48
2022/09/20 01:34:06;;;;;;;1.40;0.73;;;;;;;24.78;36.40;102183.09;5093801;28;20107;-45
2022/09/20 01:36:39;;;;;;;2.05;0.98;;;;;;;24.79;37.04;102179.63;5092879;28;20040;-46
2022/09/20 01:39:17;;;;;;;1.30;0.70;;;;;;;24.77;36.56;102176.94;5093065;28;20028;-49
2022/09/20 01:41:52;;;;;;;1.85;0.82;;;;;;;24.78;36.68;102181.34;5093052;28;20441;-46
2022/09/20 01:44:36;;;;;;;2.75;1.15;;;;;;;24.78;36.52;102178.72;5093042;28;20028;-47
2022/09/20 01:47:27;;;;;;;1.60;0.85;;;;;;;24.80;36.32;102176.16;5093341;28;20107;-46
2022/09/20 01:50:33;;;;;;;0.93;0.70;;;;;;;24.78;36.44;102176.09;5086897;28;20123;-47
2022/09/20 01:53:30;;;;;;;2.92;0.95;;;;;;;24.78;36.56;102180.47;5073994;28;20504;-49
2022/09/20 01:56:36;;;;;;;3.05;0.70;;;;;;;24.78;36.42;102186.59;5086406;28;20036;-48
2022/09/20 01:59:05;;;;;;;1.17;0.63;;;;;;;24.82;36.23;102184.97;5067881;28;20062;-47
2022/09/20 02:01:53;;;;;;;1.90;0.60;;;;;;;24.78;36.58;102177.84;5093090;28;20031;-47
2022/09/20 02:04:45;;;;;;;1.23;0.57;;;;;;;24.78;36.45;102183.09;5082986;28;20479;-45
2022/09/20 02:07:37;;;;;;;0.93;0.60;;;;;;;24.76;36.39;102187.41;5085078;28;20123;-46
2022/09/20 02:10:37;;;;;;;3.10;0.77;;;;;;;24.70;36.62;102185.50;5086253;28;20036;-47
2022/09/20 02:13:28;;;;;;;1.80;0.85;;;;;;;24.78;36.31;102196.22;5093014;28;20050;-46
2022/09/20 02:16:34;;;;;;;1.00;0.52;;;;;;;24.81;36.64;102194.56;5093017;28;20023;-48
2022/09/20 02:19:41;;;;;;;3.22;0.88;;;;;;;24.73;36.20;102181.22;5083711;28;20102;-49
2022/09/20 02:22:15;;;;;;;1.33;0.73;;;;;;;24.76;36.23;102193.53;5085913;28;20118;-48
2022/09/20 02:25:07;;;;;;;1.73;0.77;;;;;;;24.69;36.67;102197.66;5092708;28;20475;-48
2022/09/20 02:27:58;;;;;;;1.00;0.63;;;;;;;24.71;36.37;102192.53;5067545;28;20040;-46
2022/09/20 02:30:45;;;;;;;1.48;0.55;;;;;;;24.69;36.58;102195.03;5086855;28;20040;-47
2022/09/20 02:33:20;;;;;;;1.90;1.00;;;;;;;24.73;36.64;102199.56;5083534;28;20094;-48
2022/09/20 02:36:12;;;;;;;1.02;0.77;;;;;;;24.74;36.42;102200.44;5096205;28;20490;-48
2022/09/20 02:39:00;;;;;;;1.30;0.68;;;;;;;24.76;36.68;102200.53;5092931;28;20032;-49
2022/09/20 02:41:55;;;;;;;2.15;0.63;;;;;;;24.73;36.82;102203.94;5087733;28;20383;-46
2022/09/20 02:44:50;;;;;;;1.13;0.45;;;;;;;24.73;36.32;102206.56;5078068;28;20020;-47
2022/09/20 02:47:24;;;;;;;1.58;0.82;;;;;;;24.78;36.71;102201.47;5090090;28;20032;-47
2022/09/20 02:50:12;;;;;;;0.40;0.40;;;;;;;24.79;36.23;102203.25;5095961;28;20031;-48
2022/09/20 02:52:49;;;;;;;2.00;0.70;;;;;;;24.75;36.66;102206.59;5088718;28;20060;-50
2022/09/20 02:55:27;;;;;;;1.23;0.68;;;;;;;24.72;36.31;102200.41;5078341;28;20028;-47
2022/09/20 02:58:07;;;;;;;1.25;0.80;;;;;;;24.70;36.43;102194.22;5077742;28;20036;-46
2022/09/20 03:00:44;;;;;;;1.48;0.82;;;;;;;24.73;36.80;102196.09;5096238;28;20548;-46
2022/09/20 03:03:20;;;;;;;1.10;0.57;;;;;;;24.70;36.86;102195.97;5077949;28;20079;-50
2022/09/20 03:06:18;;;;;;;2.72;0.88;;;;;;;24.66;36.55;102200.19;5095912;28;20093;-47
2022/09/20 03:08:55;;;;;;;1.63;0.55;;;;;;;24.77;36.35;102191.81;5095755;28;20055;-49
2022/09/20 03:11:43;;;;;;;2.47;0.77;;;;;;;24.80;36.50;102194.53;5096145;28;20435;-47
2022/09/20 03:14:22;;;;;;;2.03;0.77;;;;;;;24.73;36.35;102196.94;5088410;28;20032;-45
2022/09/20 03:17:03;;;;;;;1.65;0.73;;;;;;;24.67;36.77;102196.72;5078276;28;20103;-46
2022/09/20 03:19:50;;;;;;;1.42;0.70;;;;;;;24.70;36.71;102190.75;5077929;28;20027;-50
2022/09/20 03:22:41;;;;;;;2.33;1.17;;;;;;;24.71;36.75;102193.38;5095719;28;20027;-49
2022/09/20 03:25:48;;;;;;;2.15;0.90;;;;;;;24.63;36.89;102186.09;5087049;28;20032;-50
2022/09/20 03:28:42;;;;;;;1.15;0.60;;;;;;;24.73;36.64;102191.72;5086929;28;20441;-50
2022/09/20 03:31:34;;;;;;;3.00;0.95;;;;;;;24.73;36.51;102191.72;5065918;28;20074;-49
2022/09/20 03:34:13;;;;;;;1.88;0.68;;;;;;;24.70;36.49;102191.59;5095257;28;20111;-47
2022/09/20 03:37:09;;;;;;;2.50;0.95;;;;;;;24.66;36.56;102179.19;5095171;28;20397;-47
2022/09/20 03:39:49;;;;;;;1.88;0.80;;;;;;;24.70;36.74;102194.22;5089235;28;20036;-45
2022/09/20 03:42:18;;;;;;;0.60;0.50;;;;;;;24.72;36.54;102189.06;5095071;28;20024;-47
2022/09/20 03:45:15;;;;;;;1.13;0.60;;;;;;;24.69;36.71;102196.78;5060126;28;20072;-50
2022/09/20 03:47:53;;;;;;;1.45;0.52;;;;;;;24.65;36.82;102195.81;5088256;28;20539;-45
2022/09/20 03:50:49;;;;;;;1.30;0.70;;;;;;;24.67;36.46;102196.72;5095453;28;20035;-46
2022/09/20 03:53:38;;;;;;;2.97;0.93;;;;;;;24.69;36.55;102195.03;5088087;28;20043;-47
2022/09/20 03:56:45;;;;;;;1.85;0.98;;;;;;;24.62;36.55;102187.84;5085963;28;20566;-45
2022/09/20 03:59:53;;;;;;;1.52;0.77;;;;;;;24.68;36.60;102185.38;5077359;28;20051;-46
2022/09/20 04:02:47;;;;;;;2.53;0.80;;;;;;;24.72;36.69;102186.44;5078261;28;20111;-48
2022/09/20 04:05:22;;;;;;;1.88;1.00;;;;;;;24.66;36.40;102178.31;5070445;28;20032;-46
2022/09/20 04:08:07;;;;;;;2.92;1.13;;;;;;;24.62;36.54;102187.84;5094649;28;20039;-46
2022/09/20 04:11:03;;;;;;;1.90;0.95;;;;;;;24.68;36.76;102182.75;5094994;28;20153;-48
2022/09/20 04:13:31;;;;;;;0.88;0.57;;;;;;;24.70;36.41;102188.13;5087976;28;20039;-45
2022/09/20 04:16:08;;;;;;;2.05;0.95;;;;;;;24.64;36.77;102188.78;5094525;28;20038;-53
2022/09/20 04:18:42;;;;;;;1.48;0.90;;;;;;;24.62;36.66;102190.47;5076607;28;20047;-47
2022/09/20 04:21:33;;;;;;;1.30;0.60;;;;;;;24.60;36.78;102184.28;5076371;28;20035;-46
2022/09/20 04:24:04;;;;;;;4.10;0.70;;;;;;;24.59;36.78;102185.13;5086358;28;20024;-47
2022/09/20 04:26:36;;;;;;;1.98;1.00;;;;;;;24.52;36.85;102180.53;5094266;28;20047;-51
2022/09/20 04:29:33;;;;;;;1.92;0.70;;;;;;;24.51;37.02;102182.28;5076254;28;20058;-48
2022/09/20 04:32:12;;;;;;;1.80;0.77;;;;;;;24.54;36.87;102173.59;5093932;28;20039;-48
2022/09/20 04:37:50;;;;;;;1.40;0.80;;;;;;;24.67;36.80;102167.00;5085551;28;20053;-47
2022/09/20 04:40:37;;;;;;;1.20;0.90;;;;;;;24.59;36.40;102172.00;5076297;28;20058;-49
2022/09/20 04:43:06;;;;;;;3.22;0.73;;;;;;;24.57;36.52;102171.94;5086300;28;20445;-48
2022/09/20 04:46:12;;;;;;;2.55;0.88;;;;;;;24.52;36.81;102175.28;5093846;28;20027;-49
2022/09/20 04:49:18;;;;;;;5.43;0.70;;;;;;;24.51;36.74;102174.41;5085569;28;20115;-47
2022/09/20 04:52:03;;;;;;;2.33;1.05;;;;;;;24.53;36.50;102161.31;5073648;28;20062;-50
2022/09/20 04:54:54;;;;;;;1.25;0.80;;;;;;;24.55;36.27;102168.41;5076154;28;20136;-50
2022/09/20 04:57:41;;;;;;;2.25;1.00;;;;;;;24.52;36.88;102172.66;5093585;28;20039;-50
2022/09/20 05:00:32;;;;;;;3.42;0.90;;;;;;;24.53;36.59;102177.97;5093643;28;20066;-48
2022/09/20 05:03:24;;;;;;;1.15;1.02;;;;;;;24.50;36.65;102172.63;5090265;28;20098;-49
2022/09/20 05:06:13;;;;;;;1.00;0.70;;;;;;;24.51;36.74;102177.03;5069705;28;20036;-46
2022/09/20 05:09:03;;;;;;;1.67;0.95;;;;;;;24.47;36.81;102169.03;5087530;28;20118;-50
2022/09/20 05:12:10;;;;;;;1.55;0.93;;;;;;;24.43;36.78;102173.28;5075701;28;20031;-47
2022/09/20 05:14:51;;;;;;;1.20;0.68;;;;;;;24.46;36.71;102169.88;5090394;28;20115;-48
2022/09/20 05:17:24;;;;;;;3.28;0.98;;;;;;;24.46;36.47;102180.38;5093365;28;20042;-46
2022/09/20 05:20:24;;;;;;;1.65;0.60;;;;;;;24.46;36.47;102177.75;5075894;28;20020;-45
2022/09/20 05:23:08;;;;;;;1.33;0.90;;;;;;;24.47;36.52;102175.16;5087297;28;20445;-46
2022/09/20 05:25:39;;;;;;;2.35;0.90;;;;;;;24.46;36.55;102183.88;5093526;28;20052;-47
2022/09/20 05:28:30;;;;;;;1.90;0.77;;;;;;;24.45;36.58;102186.47;5093443;28;20024;-46
2022/09/20 05:31:06;;;;;;;2.15;0.65;;;;;;;24.46;36.55;102186.50;5052741;28;20512;-46
2022/09/20 05:34:00;;;;;;;2.45;0.90;;;;;;;24.48;36.39;102186.56;5075505;28;20032;-47
2022/09/20 05:36:50;;;;;;;1.48;0.80;;;;;;;24.50;36.76;102191.00;5089166;28;20091;-46
2022/09/20 05:39:57;;;;;;;3.40;0.70;;;;;;;24.50;36.28;102195.34;5084590;28;20086;-46
2022/09/20 05:42:47;;;;;;;1.00;0.77;;;;;;;24.49;36.75;102197.09;5091784;28;20032;-46
2022/09/20 05:45:53;;;;;;;1.92;0.95;;;;;;;24.47;36.75;102197.88;5066396;28;20043;-46
2022/09/20 05:48:40;;;;;;;1.20;0.60;;;;;;;24.52;36.33;102201.53;5085192;28;20036;-50
2022/09/20 05:51:28;;;;;;;1.65;0.98;;;;;;;24.49;36.45;102198.81;5086063;28;20097;-47
2022/09/20 05:54:20;;;;;;;2.42;0.80;;;;;;;24.43;36.83;102200.41;5092682;28;20039;-45
2022/09/20 05:56:53;;;;;;;1.02;0.68;;;;;;;24.46;36.65;102199.59;5065284;28;20039;-45
2022/09/20 05:59:59;;;;;;;2.70;0.85;;;;;;;24.46;36.78;102209.22;5092883;28;20024;-47
2022/09/20 06:02:52;;;;;;;2.30;0.68;;;;;;;24.37;36.72;102205.47;5086245;28;20131;-46
2022/09/20 06:05:44;;;;;;;1.77;1.00;;;;;;;24.40;36.91;102205.56;5068262;28;20094;-46
2022/09/20 06:08:28;;;;;;;1.90;0.80;;;;;;;24.41;36.92;102216.91;5067755;28;20463;-47
2022/09/20 06:11:21;;;;;;;1.23;0.67;;;;;;;24.39;37.02;102218.63;5097206;28;20066;-46
2022/09/20 06:14:09;;;;;;;1.35;0.75;;;;;;;24.42;36.70;102211.75;5071505;28;20710;-46
2022/09/20 06:17:16;;;;;;;2.25;0.73;;;;;;;24.44;36.79;102211.78;5089159;28;20044;-46
2022/09/20 06:19:56;;;;;;;1.73;0.80;;;;;;;24.35;36.48;102193.16;5075729;28;20501;-48
2022/09/20 06:22:31;;;;;;;2.08;0.90;;;;;;;24.42;36.56;102214.38;5079056;28;20039;-45
2022/09/20 06:25:04;;;;;;;1.42;0.60;;;;;;;24.40;36.54;102226.53;5078546;28;20019;-45
2022/09/20 06:27:46;;;;;;;1.00;0.60;;;;;;;24.42;36.37;102223.94;5096857;28;20115;-45
2022/09/20 06:30:29;;;;;;;5.93;0.82;;;;;;;24.45;36.35;102221.44;5096544;28;20048;-47
2022/09/20 06:32:59;;;;;;;1.65;0.93;;;;;;;24.52;36.58;102226.03;5078623;28;20459;-47
2022/09/20 06:35:34;;;;;;;2.42;0.82;;;;;;;24.48;36.39;102223.28;5095971;28;20059;-50
2022/09/20 06:41:35;;;;;;;3.67;0.77;;;;;;;24.54;36.50;102218.19;5087274;28;20471;-48
2022/09/20 06:44:03;;;;;;;3.17;1.10;;;;;;;24.54;36.15;102236.56;5095583;28;20028;-45
2022/09/20 06:46:34;;;;;;;3.97;0.55;;;;;;;24.51;36.37;102241.72;5096400;28;20073;-49
2022/09/20 06:49:03;;;;;;;3.60;1.35;;;;;;;24.54;36.50;102247.97;5078152;28;20111;-50
2022/09/20 06:51:36;;;;;;;3.10;0.65;;;;;;;24.58;36.45;102252.44;5078060;28;20028;-45
2022/09/20 06:54:05;;;;;;;6.57;1.05;;;;;;;24.63;36.17;102241.19;5095601;28;20478;-50
2022/09/20 06:56:35;;;;;;;1.70;0.60;;;;;;;24.70;36.18;102259.84;5096084;28;20027;-48
2022/09/20 06:59:10;;;;;;;1.88;0.88;;;;;;;24.73;36.25;102259.94;5095698;28;20417;-49
2022/09/20 07:01:38;;;;;;;2.08;0.77;;;;;;;24.73;35.98;102248.56;5096104;28;20089;-47
2022/09/20 07:04:08;;;;;;;5.10;1.20;;;;;;;24.77;36.07;102250.41;5096117;28;20028;-47
2022/09/20 07:06:37;;;;;;;2.00;0.70;;;;;;;24.67;36.49;102236.09;5095909;28;20028;-49
2022/09/20 07:09:06;;;;;;;2.30;0.90;;;;;;;24.78;36.31;102259.19;5077819;28;20451;-46
2022/09/20 07:11:34;;;;;;;2.17;0.90;;;;;;;24.76;36.30;102251.25;5095807;28;20024;-50
2022/09/20 07:14:03;;;;;;;4.88;1.13;;;;;;;24.78;36.33;102257.44;5095914;28;20450;-48
2022/09/20 07:16:31;;;;;;;1.98;0.88;;;;;;;24.77;36.73;102253.03;5077552;28;20118;-46
2022/09/20 07:19:00;;;;;;;2.53;1.15;;;;;;;24.80;36.44;102241.75;5095270;28;20035;-47
2022/09/20 07:21:29;;;;;;;6.03;1.00;;;;;;;24.88;36.30;102253.34;5094382;28;20110;-51
2022/09/20 07:23:57;;;;;;;1.42;0.98;;;;;;;24.86;36.53;102247.16;5095876;28;20020;-49
2022/09/20 07:26:27;;;;;;;1.20;0.85;;;;;;;24.93;36.55;102262.28;5095632;28;20031;-46
2022/09/20 07:28:57;;;;;;;1.67;0.70;;;;;;;24.93;36.33;102264.00;5095440;28;20093;-52
2022/09/20 07:31:26;;;;;;;5.07;1.00;;;;;;;24.94;36.44;102269.31;5077486;28;20028;-48
2022/09/20 07:33:55;;;;;;;6.00;1.20;;;;;;;24.98;36.18;102265.94;5095498;28;20080;-50
2022/09/20 07:36:24;;;;;;;4.25;1.10;;;;;;;25.02;36.53;102273.03;5094899;28;20486;-48
2022/09/20 07:38:53;;;;;;;2.60;0.93;;;;;;;25.07;36.42;102274.91;5095240;28;20395;-46
2022/09/20 07:41:22;;;;;;;1.83;0.95;;;;;;;25.07;36.76;102282.78;5095446;28;20020;-46
2022/09/20 07:43:50;;;;;;;2.22;1.13;;;;;;;25.04;36.41;102283.59;5095420;28;20024;-46
2022/09/20 07:46:23;;;;;;;3.63;0.85;;;;;;;25.03;36.46;102274.81;5095130;28;20039;-46
2022/09/20 07:48:51;;;;;;;2.60;1.00;;;;;;;25.12;36.29;102289.06;5076594;28;20083;-50
2022/09/20 07:51:20;;;;;;;5.10;0.80;;;;;;;25.18;36.22;102281.34;5095088;28;20479;-47
2022/09/20 07:53:48;;;;;;;4.28;1.05;;;;;;;25.15;36.58;102282.16;5095011;28;20089;-49
2022/09/20 07:56:17;;;;;;;4.50;1.17;;;;;;;25.18;36.22;102282.25;5094378;28;20401;-47
2022/09/20 07:58:46;;;;;;;2.72;1.00;;;;;;;25.20;36.47;102284.91;5094819;28;20031;-46
2022/09/20 08:01:15;;;;;;;3.33;1.25;;;;;;;25.20;36.33;102289.28;5077512;28;20423;-45
2022/09/20 08:03:44;;;;;;;4.80;1.02;;;;;;;25.23;36.45;102292.00;5094704;28;20030;-45
2022/09/20 08:06:15;;;;;;;2.45;1.08;;;;;;;25.25;36.65;102295.53;5071849;28;20478;-56
2022/09/20 08:08:43;;;;;;;1.88;0.80;;;;;;;25.27;36.38;102289.50;5094641;28;20063;-45
2022/09/20 08:11:14;;;;;;;2.78;0.80;;;;;;;25.31;36.50;102295.72;5083924;28;20559;-46
2022/09/20 08:13:47;;;;;;;1.38;0.80;;;;;;;25.32;36.27;102303.63;5097394;28;20023;-47
2022/09/20 08:16:15;;;;;;;3.28;0.90;;;;;;;25.38;36.15;102312.56;5098263;28;20379;-46
2022/09/20 08:18:49;;;;;;;3.63;0.88;;;;;;;25.38;36.29;102309.91;5100966;28;20024;-47
2022/09/20 08:21:16;;;;;;;2.45;0.90;;;;;;;25.36;36.21;102302.00;5080735;28;20031;-47
2022/09/20 08:23:47;;;;;;;2.80;0.80;;;;;;;25.44;36.27;102313.63;5086996;28;20019;-47
2022/09/20 08:26:19;;;;;;;3.25;1.50;;;;;;;25.46;36.36;102318.97;5076112;28;20056;-46
2022/09/20 08:28:48;;;;;;;2.13;0.90;;;;;;;25.52;35.98;102324.38;5075941;28;20484;-46
2022/09/20 08:31:18;;;;;;;4.68;1.02;;;;;;;25.57;36.07;102329.75;5075715;28;20403;-47
2022/09/20 08:33:49;;;;;;;2.67;1.48;;;;;;;25.59;36.12;102333.31;5093390;28;20078;-46
2022/09/20 08:36:20;;;;;;;2.85;1.23;;;;;;;25.56;36.08;102320.97;5094086;28;20138;-46
2022/09/20 08:38:49;;;;;;;1.92;0.95;;;;;;;25.60;36.03;102325.50;5094196;28;20032;-50
2022/09/20 08:41:55;;;;;;;1.65;0.80;;;;;;;25.61;36.06;102332.53;5093658;28;20028;-48
2022/09/20 08:44:28;;;;;;;2.13;0.98;;;;;;;25.69;36.03;102331.81;5091371;28;20024;-49
2022/09/20 08:47:23;;;;;;;1.17;0.70;;;;;;;25.68;35.95;102332.66;5075905;28;20024;-49
2022/09/20 08:49:53;;;;;;;2.83;0.93;;;;;;;25.72;35.89;102329.28;5093222;28;20028;-46
2022/09/20 08:52:29;;;;;;;3.05;1.20;;;;;;;25.73;35.46;102333.69;5093446;28;20040;-48
2022/09/20 08:54:58;;;;;;;1.65;0.55;;;;;;;25.75;35.50;102337.25;5073331;28;20116;-46
2022/09/20 08:57:32;;;;;;;1.25;0.55;;;;;;;25.74;35.64;102338.97;5073361;28;20032;-47
2022/09/20 09:00:01;;;;;;;3.55;1.20;;;;;;;25.82;35.59;102344.44;5073163;28;20391;-48
2022/09/20 09:02:31;;;;;;;0.60;0.50;;;;;;;25.81;35.29;102340.06;5055490;28;20060;-47
2022/09/20 09:04:59;;;;;;;4.65;1.52;;;;;;;25.84;35.35;102350.63;5073506;28;20360;-50
2022/09/20 09:07:27;;;;;;;2.65;0.90;;;;;;;25.80;35.48;102346.16;5072531;28;20029;-46
2022/09/20 09:09:57;;;;;;;0.98;0.60;;;;;;;25.81;35.47;102354.94;5080148;28;20047;-47
2022/09/20 09:12:27;;;;;;;0.98;0.73;;;;;;;25.88;35.03;102355.13;5093088;28;20103;-51
2022/09/20 09:14:59;;;;;;;1.05;0.57;;;;;;;25.89;34.93;102350.78;5075146;28;20028;-45
2022/09/20 09:17:28;;;;;;;1.33;0.68;;;;;;;25.89;34.89;102348.16;5092845;28;20081;-52
2022/09/20 09:20:17;;;;;;;1.25;0.43;;;;;;;25.88;35.06;102359.53;5093326;28;20486;-50
2022/09/20 09:22:46;;;;;;;5.45;0.70;;;;;;;25.94;34.78;102351.78;5092923;28;20099;-46
2022/09/20 09:25:16;;;;;;;4.78;1.00;;;;;;;25.97;34.67;102356.25;5093025;28;20031;-45
2022/09/20 09:27:52;;;;;;;2.00;0.80;;;;;;;25.99;34.93;102355.44;5093235;28;20386;-53
2022/09/20 09:30:26;;;;;;;1.35;0.70;;;;;;;26.00;34.47;102357.22;5092833;28;20455;-50
2022/09/20 09:33:15;;;;;;;2.15;0.60;;;;;;;25.97;34.49;102349.22;5092432;28;20032;-51
2022/09/20 09:35:44;;;;;;;1.60;0.77;;;;;;;25.98;34.60;102352.78;5074882;28;20036;-48
2022/09/20 09:38:20;;;;;;;1.88;0.73;;;;;;;25.98;34.58;102355.41;5092713;28;20093;-47
2022/09/20 09:40:53;;;;;;;1.33;0.55;;;;;;;26.00;34.46;102357.22;5075021;28;20024;-51
2022/09/20 09:43:27;;;;;;;2.05;0.63;;;;;;;26.01;34.17;102359.00;5091452;28;20479;-51
2022/09/20 09:45:57;;;;;;;1.42;0.68;;;;;;;26.04;34.19;102361.72;5092384;28;20021;-50
2022/09/20 09:48:30;;;;;;;1.10;0.60;;;;;;;26.06;34.22;102367.00;5092646;28;20032;-49
2022/09/20 09:51:08;;;;;;;2.63;0.80;;;;;;;26.04;34.16;102358.19;5074398;28;20024;-50
2022/09/20 09:53:37;;;;;;;1.88;0.80;;;;;;;26.05;33.90;102360.88;5092679;28;20032;-47
2022/09/20 09:56:15;;;;;;;3.03;0.80;;;;;;;26.01;34.18;102360.72;5092709;28;20382;-46
2022/09/20 09:59:09;;;;;;;1.67;0.80;;;;;;;26.04;34.15;102353.81;5093013;28;20034;-47
2022/09/20 10:01:38;;;;;;;1.67;0.75;;;;;;;26.09;34.14;102354.81;5085856;28;20036;-51
2022/09/20 10:04:15;;;;;;;1.40;0.70;;;;;;;26.06;33.95;102346.84;5074105;28;20399;-47
2022/09/20 10:07:00;;;;;;;1.83;0.90;;;;;;;26.05;34.11;102344.19;5074805;28;20020;-47
2022/09/20 10:09:31;;;;;;;;;;;;;;;26.15;34.03;102338.31;5093173;28;20043;-46
2022/09/20 10:12:09;;;;;;;1.83;0.75;;;;;;;26.15;34.31;102335.69;5092296;28;19916;-46
2022/09/20 10:15:01;;;;;;;1.52;0.70;;;;;;;26.13;34.12;102337.44;5074215;28;20169;-48
2022/09/20 10:17:54;;;;;;;2.00;0.80;;;;;;;26.17;34.42;102338.38;5084102;28;20076;-46
2022/09/20 10:20:54;;;;;;;1.02;0.57;;;;;;;26.16;34.44;102334.84;5086105;28;20062;-47
2022/09/20 10:23:43;;;;;;;2.17;0.82;;;;;;;26.26;34.25;102348.25;5088033;28;20067;-49
2022/09/20 10:26:46;;;;;;;1.85;0.57;;;;;;;26.20;34.48;102343.72;5092109;28;20047;-46
2022/09/20 10:29:33;;;;;;;0.77;0.47;;;;;;;26.23;34.46;102349.94;5071060;28;20452;-46
2022/09/20 10:32:25;;;;;;;1.02;0.50;;;;;;;26.22;34.25;102342.03;5092025;28;20028;-47
2022/09/20 10:35:20;;;;;;;0.80;0.65;;;;;;;26.23;34.41;102336.78;5074456;28;20035;-46
2022/09/20 10:38:07;;;;;;;3.53;0.55;;;;;;;26.31;34.23;102338.75;5092224;28;20510;-49
2022/09/20 10:43:41;;;;;;;1.13;0.68;;;;;;;26.31;34.63;102333.47;5085256;28;20494;-50
2022/09/20 10:46:14;;;;;;;1.10;0.70;;;;;;;26.33;34.58;102334.38;5092347;28;20024;-50
2022/09/20 10:48:47;;;;;;;2.08;0.80;;;;;;;26.34;34.58;102331.81;5092543;28;20024;-50
2022/09/20 10:51:26;;;;;;;1.08;0.88;;;;;;;26.30;34.99;102329.94;5074571;28;20073;-52
2022/09/20 10:54:21;;;;;;;1.02;0.50;;;;;;;26.33;34.75;102323.84;5074098;28;20059;-49
2022/09/20 10:56:55;;;;;;;1.58;0.40;;;;;;;26.36;34.71;102331.81;5088515;28;20048;-49
2022/09/20 10:59:36;;;;;;;1.17;0.60;;;;;;;26.33;35.04;102324.75;5075851;28;20136;-54
2022/09/20 11:02:28;;;;;;;1.85;0.60;;;;;;;26.30;35.25;102326.44;5093620;28;20130;-47
2022/09/20 11:05:18;;;;;;;1.20;0.50;;;;;;;26.35;34.89;102330.03;5099801;28;20444;-49
2022/09/20 11:08:13;;;;;;;1.10;0.70;;;;;;;26.34;34.82;102315.13;5080589;28;20046;-49
2022/09/20 11:10:53;;;;;;;1.85;0.60;;;;;;;26.41;34.76;102318.78;5098593;28;20028;-47
2022/09/20 11:13:40;;;;;;;0.80;0.50;;;;;;;26.39;35.05;102318.75;5102957;28;20031;-50
2022/09/20 11:16:22;;;;;;;2.95;0.60;;;;;;;26.31;34.65;102308.03;5089058;28;20043;-50
2022/09/20 11:18:54;;;;;;;1.88;0.60;;;;;;;26.36;34.99;102302.88;5102566;28;20050;-50
2022/09/20 11:21:28;;;;;;;3.83;1.08;;;;;;;26.34;35.01;102294.06;5104456;28;20424;-49
2022/09/20 11:24:34;;;;;;;0.93;0.57;;;;;;;26.34;34.74;102302.88;5105576;28;20356;-48
2022/09/20 11:27:28;;;;;;;1.45;0.60;;;;;;;26.35;34.98;102309.00;5090695;28;20047;-48
2022/09/20 11:30:00;;;;;;;5.68;1.00;;;;;;;26.40;34.98;102312.63;5102539;28;20043;-50
2022/09/20 11:32:50;;;;;;;2.78;0.73;;;;;;;26.34;34.94;102302.88;5103704;28;20027;-46
2022/09/20 11:35:39;;;;;;;4.22;0.95;;;;;;;26.38;34.89;102301.19;5089298;28;20039;-50
2022/09/20 11:38:20;;;;;;;1.80;0.70;;;;;;;26.36;34.42;102295.91;5076781;28;20032;-47
2022/09/20 11:40:54;;;;;;;0.50;0.40;;;;;;;26.42;34.91;102303.03;5095368;28;20469;-48
2022/09/20 11:43:25;;;;;;;2.90;0.52;;;;;;;26.36;35.03;102300.25;5077753;28;20090;-48
2022/09/20 11:45:58;;;;;;;2.20;0.90;;;;;;;26.40;35.09;102304.75;5095580;28;20491;-51
2022/09/20 11:48:31;;;;;;;1.33;0.68;;;;;;;26.46;35.09;102302.28;5077032;28;20024;-47
2022/09/20 11:51:14;;;;;;;0.65;0.47;;;;;;;26.46;34.81;102294.38;5094686;28;20066;-46
2022/09/20 11:54:20;;;;;;;1.60;0.50;;;;;;;26.46;34.90;102297.00;5076577;28;20111;-47
2022/09/20 11:56:59;;;;;;;2.58;0.68;;;;;;;26.46;35.11;102291.75;5076004;28;20402;-48
2022/09/20 11:59:35;;;;;;;1.80;0.52;;;;;;;26.48;34.78;102290.00;5077842;28;20073;-48
2022/09/20 12:02:25;;;;;;;0.77;0.50;;;;;;;26.50;35.14;102290.94;5094666;28;20027;-46
2022/09/20 12:04:55;;;;;;;2.42;0.88;;;;;;;26.38;35.07;102269.63;5091490;28;20040;-47
2022/09/20 12:07:25;;;;;;;2.17;0.77;;;;;;;26.49;35.00;102286.53;5076272;28;20039;-46
2022/09/20 12:09:57;;;;;;;3.58;0.70;;;;;;;26.51;35.15;102287.47;5094904;28;20024;-47
2022/09/20 12:12:45;;;;;;;2.10;0.63;;;;;;;26.53;35.14;102277.88;5076406;28;20032;-48
2022/09/20 12:15:26;;;;;;;0.80;0.45;;;;;;;26.50;35.05;102285.69;5094762;28;20028;-46
2022/09/20 12:17:56;;;;;;;1.00;0.50;;;;;;;26.56;34.96;102282.28;5094426;28;20032;-49
2022/09/20 12:20:43;;;;;;;1.95;0.63;;;;;;;26.53;35.14;102277.88;5094444;28;20043;-47
2022/09/20 12:23:40;;;;;;;1.17;0.52;;;;;;;26.53;35.30;102279.63;5093919;28;20031;-48
2022/09/20 12:26:19;;;;;;;1.55;0.65;;;;;;;26.57;35.30;102275.31;5090091;28;20082;-48
2022/09/20 12:28:49;;;;;;;0.38;0.38;;;;;;;26.54;35.35;102279.66;5094129;28;20051;-47
2022/09/20 12:31:21;;;;;;;0.90;0.50;;;;;;;26.54;35.12;102270.88;5094488;28;20024;-47
2022/09/20 12:34:09;;;;;;;1.77;0.75;;;;;;;26.50;35.47;102271.66;5094192;28;20172;-48
2022/09/20 12:36:42;;;;;;;2.50;0.98;;;;;;;26.59;35.57;102265.72;5094117;28;20398;-47
2022/09/20 12:39:11;;;;;;;2.17;0.70;;;;;;;26.57;35.45;102262.16;5094391;28;20166;-50